重慶 の空港の天気 - METARとTAF

重慶江北国際空港 ( ZUCK / CKG ) - 中国 重慶市
飛行場実況気象(Metar)
観測時間05/26 10:00 CST (05/26 02:00 UTC)
風向・風速北東 3m/s
視程8000m
天気現象
全天の4割程度の雲 雲底高度 210m
全天の4割程度の雲 雲底高度 610m
全天を覆う雲 雲底高度 1220m
気温20℃
湿度100%
気圧1009hPa
METARZUCK 260200Z 05003MPS 020V080 8000 SCT007 SCT020 OVC040 20/20 Q1009 NOSIG
過去の天気等 Google飛行場航空写真 Wunderground天気予報

過去48時間のMETAR

飛行場予報(TAF)
発表時間: 5/26 05:05 CST (5/25 21:05 UTC)
予報対象時間: 26日8時 CST ~ 27日8時 CST
風向・風速北東 4m/s
視程6000m
天気現象弱いしゅう雨
全天の4割程度の雲 雲底高度 610m
全天を覆う雲 雲底高度 1520m
TAF ZUCK 252105Z 2600/2624 05004MPS 6000 -SHRA SCT020 OVC050 TX25/2608Z TN21/2621Z